Impacts TAF Board
For situational awareness. Not to be used for flight planning purposes.
IDs:

KOKC - Oklahoma City/Will R, OK, US

Issued at 1720 UTC 21 May 2022
Updated at 2249 UTC 21 May 2022
Potential Impact None Slight Moderate High
Time2152Z 21/23Z 22/00Z 22/01Z 22/02Z 22/03Z 22/04Z 22/05Z 22/06Z 22/07Z 22/08Z 22/09Z 22/10Z 22/11Z>>
Type OBS PRVL PRVL PRVL PRVL PRVL PRVL PRVL PRVL PRVL PRVL PRVL PRVL PRVL
VIS 10 >6 >6 >6 >6 >6 >6 >6 >6 >6 >6 >6 >6 >6
CIG 43 35 35 -- -- -- -- -- -- -- -- -- -- --
Cover BKN OVC OVC SCT SCT SCT SCT SCT SKC SKC SKC SKC SKC SKC
FltCat VFR VFR VFR VFR VFR VFR VFR VFR VFR VFR VFR VFR VFR VFR
WX -- -- -- -- -- -- -- -- -- -- -- -- -- --
WDir 20 10 10 20 20 20 20 20 30 30 30 30 30 30
WSpd 17 17 17 14 14 14 14 14 11 11 11 11 11 11
WGst 25 28 28 23 23 23 23 23 -- -- -- -- -- --
WSHgt -- -- -- -- -- -- -- -- -- -- -- -- -- --
WSDir -- -- -- -- -- -- -- -- -- -- -- -- -- --
WSSpd -- -- -- -- -- -- -- -- -- -- -- -- -- --
R13/31
XWnd 15 14 14 13 13 13 13 13 11 11 11 11 11 11
XGst 23 23 23 21 21 21 21 21 -- -- -- -- -- --
HWnd -7 -10 -10 -6 -6 -6 -6 -6 -3 -3 -3 -3 -3 -3
HGst -11 -16 -16 -10 -10 -10 -10 -10 -- -- -- -- -- --
R17/35
XWnd 6 3 3 5 5 5 5 5 6 6 6 6 6 6
XGst 9 5 5 8 8 8 8 8 -- -- -- -- -- --
HWnd -16 -17 -17 -13 -13 -13 -13 -13 -10 -10 -10 -10 -10 -10
HGst -23 -28 -28 -22 -22 -22 -22 -22 -- -- -- -- -- --
R18/36
XWnd 6 3 3 5 5 5 5 5 6 6 6 6 6 6
XGst 9 5 5 8 8 8 8 8 -- -- -- -- -- --
HWnd -16 -17 -17 -13 -13 -13 -13 -13 -10 -10 -10 -10 -10 -10
HGst -23 -28 -28 -22 -22 -22 -22 -22 -- -- -- -- -- --
Raw TAF
KOKC 211720Z 2118/2218 01017G28KT P6SM OVC035
  TEMPO 2118/2120 OVC025
  FM220100 02014G23KT P6SM SCT050 SCT250
  FM220600 03011KT P6SM SKC
  FM221400 04013KT P6SM FEW250


Raw METAR
KOKC 212152Z 02017G25KT 10SM BKN043 18/08 A3006 RMK AO2 PK WND 36028/2102 SLP172 T01830078
KOKC 212052Z 01015G22KT 10SM OVC038 17/08 A3006 RMK AO2 PK WND 01028/2017 SLP174 T01720078 53007
KOKC 211952Z 01017G26KT 10SM OVC033 16/08 A3006 RMK AO2 PK WND 36029/1920 SLP171 T01610078

METAR Board
Radar Display
Forecast Discussion
For situational awareness. Not to be used for flight planning purposes.